Time;durP1;ratioP1;P1;durP2;ratioP2;P2;SDS_P1;SDS_P2;PMS_P1;PMS_P2;Temp;Humidity;BMP_temperature;BMP_pressure;BME280_temperature;BME280_humidity;BME280_pressure;Samples;Min_cycle;Max_cycle;Signal;HPM_P1;HPM_P2
2022/02/28 00:00:19;;;;;;;;;;;21.20;35.40;;;;;;691647;28;1393;-87
2022/02/28 00:00:44;;;;;;;;;;;21.20;35.40;;;;;;688768;28;1965;-85
2022/02/28 00:01:07;;;;;;;;;;;21.20;35.40;;;;;;686124;28;1479;-88
2022/02/28 00:01:28;;;;;;;;;;;21.20;35.50;;;;;;685562;28;1096;-88
2022/02/28 00:01:48;;;;;;;;;;;21.20;35.50;;;;;;686111;28;1380;-86
2022/02/28 00:02:09;;;;;;;;;;;21.20;35.50;;;;;;686539;28;1278;-89
2022/02/28 00:02:30;;;;;;;;;;;21.20;35.30;;;;;;687506;28;1234;-84
2022/02/28 00:02:51;;;;;;;;;;;21.20;35.40;;;;;;689109;28;803;-86
2022/02/28 00:03:11;;;;;;;;;;;21.20;35.50;;;;;;689046;28;787;-81
2022/02/28 00:03:32;;;;;;;;;;;21.20;35.50;;;;;;689278;28;842;-89
2022/02/28 00:03:53;;;;;;;;;;;21.20;35.60;;;;;;692030;28;870;-85
2022/02/28 00:04:14;;;;;;;;;;;21.20;35.50;;;;;;694182;28;771;-86
2022/02/28 00:04:34;;;;;;;;;;;21.20;35.50;;;;;;691606;28;1341;-87
2022/02/28 00:04:55;;;;;;;;;;;21.20;35.50;;;;;;691841;28;1296;-87
2022/02/28 00:05:16;;;;;;;;;;;21.20;35.50;;;;;;692838;28;1000;-87
2022/02/28 00:05:37;;;;;;;;;;;21.20;35.50;;;;;;690300;28;1276;-83
2022/02/28 00:05:57;;;;;;;;;;;21.20;35.50;;;;;;685781;28;1317;-83
2022/02/28 00:06:19;;;;;;;;;;;21.20;35.50;;;;;;683754;29;1219;-83
2022/02/28 00:06:40;;;;;;;;;;;21.20;35.50;;;;;;686706;28;843;-86
2022/02/28 00:07:00;;;;;;;;;;;21.20;35.50;;;;;;688469;28;835;-87
2022/02/28 00:07:21;;;;;;;;;;;21.20;35.40;;;;;;689177;28;1048;-87
2022/02/28 00:07:42;;;;;;;;;;;21.20;35.20;;;;;;691955;28;1036;-87
2022/02/28 00:08:02;;;;;;;;;;;21.20;35.40;;;;;;693603;28;1095;-87
2022/02/28 00:08:23;;;;;;;;;;;21.20;35.40;;;;;;695218;28;1485;-90
2022/02/28 00:08:44;;;;;;;;;;;21.20;35.50;;;;;;696522;28;1431;-85
2022/02/28 00:09:05;;;;;;;;;;;21.20;35.40;;;;;;696804;28;1502;-87
2022/02/28 00:09:25;;;;;;;;;;;21.20;35.50;;;;;;698115;28;1477;-83
2022/02/28 00:09:46;;;;;;;;;;;21.20;35.50;;;;;;697045;28;1521;-85
2022/02/28 00:10:07;;;;;;;;;;;21.20;35.30;;;;;;698327;28;996;-86
2022/02/28 00:10:28;;;;;;;;;;;21.20;35.30;;;;;;696623;28;1315;-86
2022/02/28 00:10:48;;;;;;;;;;;21.20;35.10;;;;;;695183;28;894;-87
2022/02/28 00:11:09;;;;;;;;;;;21.20;35.00;;;;;;694238;28;1260;-87
2022/02/28 00:11:29;;;;;;;;;;;21.20;35.00;;;;;;692559;28;1296;-86
2022/02/28 00:11:50;;;;;;;;;;;21.10;34.80;;;;;;689817;28;1468;-87
2022/02/28 00:12:11;;;;;;;;;;;21.10;34.80;;;;;;689193;28;1609;-86
2022/02/28 00:12:32;;;;;;;;;;;21.10;34.80;;;;;;691831;28;842;-85
2022/02/28 00:12:52;;;;;;;;;;;21.10;34.90;;;;;;692777;28;1016;-88
2022/02/28 00:13:13;;;;;;;;;;;21.10;34.80;;;;;;690091;28;1372;-87
2022/02/28 00:13:33;;;;;;;;;;;21.10;34.90;;;;;;690205;28;1401;-86
2022/02/28 00:13:54;;;;;;;;;;;21.10;35.30;;;;;;694705;28;1625;-87
2022/02/28 00:14:14;;;;;;;;;;;21.10;35.50;;;;;;693901;28;1322;-87
2022/02/28 00:14:35;;;;;;;;;;;21.10;35.50;;;;;;693907;28;850;-88
2022/02/28 00:14:56;;;;;;;;;;;21.10;37.00;;;;;;693355;28;1080;-88
2022/02/28 00:15:17;;;;;;;;;;;21.10;37.00;;;;;;691938;28;1384;-88
2022/02/28 00:15:38;;;;;;;;;;;21.10;37.60;;;;;;688894;28;1284;-88
2022/02/28 00:15:58;;;;;;;;;;;21.10;38.90;;;;;;688605;28;1302;-87
2022/02/28 00:16:19;;;;;;;;;;;21.10;39.30;;;;;;688926;28;1282;-87
2022/02/28 00:16:40;;;;;;;;;;;21.10;40.20;;;;;;688864;28;1010;-88
2022/02/28 00:17:00;;;;;;;;;;;21.10;39.60;;;;;;689314;28;1014;-88
2022/02/28 00:17:21;;;;;;;;;;;21.10;38.00;;;;;;689295;28;1267;-88
2022/02/28 00:17:42;;;;;;;;;;;21.10;40.20;;;;;;691454;28;863;-86
2022/02/28 00:18:02;;;;;;;;;;;21.10;39.70;;;;;;689292;28;791;-89
2022/02/28 00:18:23;;;;;;;;;;;21.10;39.20;;;;;;688755;28;1286;-86
2022/02/28 00:18:43;;;;;;;;;;;21.10;38.10;;;;;;688857;28;1205;-87
2022/02/28 00:19:04;;;;;;;;;;;21.10;41.20;;;;;;688356;28;1094;-87
2022/02/28 00:19:25;;;;;;;;;;;21.20;41.60;;;;;;688711;28;1218;-87
2022/02/28 00:19:45;;;;;;;;;;;21.10;43.30;;;;;;688925;28;1371;-86
2022/02/28 00:20:07;;;;;;;;;;;21.10;43.00;;;;;;689063;28;890;-85
2022/02/28 00:20:27;;;;;;;;;;;21.10;41.70;;;;;;688454;28;1961;-85
2022/02/28 00:20:48;;;;;;;;;;;21.10;41.20;;;;;;686120;28;1312;-87
2022/02/28 00:21:09;;;;;;;;;;;21.10;40.40;;;;;;683383;28;930;-85
2022/02/28 00:21:30;;;;;;;;;;;21.10;40.00;;;;;;683755;28;1293;-85
2022/02/28 00:21:51;;;;;;;;;;;21.10;38.90;;;;;;683522;28;1446;-85
2022/02/28 00:22:11;;;;;;;;;;;21.10;39.00;;;;;;683878;28;771;-85
2022/02/28 00:22:33;;;;;;;;;;;21.10;39.30;;;;;;683725;28;894;-86
2022/02/28 00:22:53;;;;;;;;;;;21.10;39.00;;;;;;686135;28;1348;-89
2022/02/28 00:23:14;;;;;;;;;;;21.20;39.30;;;;;;683507;28;1343;-85
2022/02/28 00:23:34;;;;;;;;;;;21.10;37.60;;;;;;683735;28;1399;-87
2022/02/28 00:23:55;;;;;;;;;;;21.10;42.40;;;;;;683389;28;1198;-86
2022/02/28 00:24:15;;;;;;;;;;;21.10;49.60;;;;;;683872;28;1329;-85
2022/02/28 00:24:36;;;;;;;;;;;21.20;54.90;;;;;;683591;28;1084;-86
2022/02/28 00:24:57;;;;;;;;;;;21.20;59.70;;;;;;683485;28;1201;-85
2022/02/28 00:25:17;;;;;;;;;;;21.20;55.70;;;;;;683634;28;1226;-85
2022/02/28 00:25:38;;;;;;;;;;;21.20;54.90;;;;;;683216;28;1223;-87
2022/02/28 00:26:00;;;;;;;;;;;21.20;53.60;;;;;;683692;28;1200;-86
2022/02/28 00:26:20;;;;;;;;;;;21.20;54.70;;;;;;686138;28;1489;-85
2022/02/28 00:26:41;;;;;;;;;;;21.30;52.20;;;;;;685513;28;1567;-87
2022/02/28 00:27:02;;;;;;;;;;;21.20;52.50;;;;;;685725;28;1625;-86
2022/02/28 00:27:23;;;;;;;;;;;21.30;50.90;;;;;;684008;28;1067;-86
2022/02/28 00:27:43;;;;;;;;;;;21.30;49.10;;;;;;683485;28;1535;-88
2022/02/28 00:28:05;;;;;;;;;;;21.20;45.10;;;;;;683379;29;1294;-88
2022/02/28 00:28:26;;;;;;;;;;;21.30;47.10;;;;;;683433;29;1316;-88
2022/02/28 00:28:46;;;;;;;;;;;21.20;43.90;;;;;;683902;28;1290;-87
2022/02/28 00:29:07;;;;;;;;;;;21.20;43.10;;;;;;686617;28;1268;-87
2022/02/28 00:29:28;;;;;;;;;;;21.20;40.80;;;;;;688646;28;1429;-88
2022/02/28 00:29:48;;;;;;;;;;;21.20;40.30;;;;;;688981;28;1164;-86
2022/02/28 00:30:09;;;;;;;;;;;21.20;39.80;;;;;;691804;28;1153;-87
2022/02/28 00:30:30;;;;;;;;;;;21.20;39.60;;;;;;691372;28;1373;-89
2022/02/28 00:30:50;;;;;;;;;;;21.20;39.70;;;;;;691665;28;806;-87
2022/02/28 00:31:11;;;;;;;;;;;21.20;40.80;;;;;;688792;28;1200;-88
2022/02/28 00:31:31;;;;;;;;;;;21.20;40.20;;;;;;688890;28;799;-85
2022/02/28 00:31:52;;;;;;;;;;;21.20;40.10;;;;;;686327;28;1433;-88
2022/02/28 00:32:13;;;;;;;;;;;21.20;39.30;;;;;;688932;28;1416;-86
2022/02/28 00:32:33;;;;;;;;;;;21.20;39.70;;;;;;688655;28;1201;-85
2022/02/28 00:32:54;;;;;;;;;;;21.20;41.50;;;;;;688814;28;878;-85
2022/02/28 00:33:14;;;;;;;;;;;21.20;40.90;;;;;;689958;28;1459;-87
2022/02/28 00:33:35;;;;;;;;;;;21.20;40.60;;;;;;688608;28;1213;-87
2022/02/28 00:33:56;;;;;;;;;;;21.20;41.00;;;;;;688381;28;1420;-87
2022/02/28 00:34:16;;;;;;;;;;;21.20;42.80;;;;;;689112;28;1421;-87
2022/02/28 00:34:37;;;;;;;;;;;21.20;41.60;;;;;;688399;28;1053;-86
2022/02/28 00:34:57;;;;;;;;;;;21.20;42.00;;;;;;688751;28;1343;-88
2022/02/28 00:35:18;;;;;;;;;;;21.20;41.10;;;;;;689004;28;1036;-88
2022/02/28 00:35:39;;;;;;;;;;;21.20;40.60;;;;;;688683;28;930;-89
2022/02/28 00:36:00;;;;;;;;;;;21.20;40.90;;;;;;688723;28;768;-87
2022/02/28 00:36:20;;;;;;;;;;;21.20;41.20;;;;;;686485;28;1153;-87
2022/02/28 00:36:41;;;;;;;;;;;21.20;40.60;;;;;;686082;28;1223;-87
2022/02/28 00:37:05;;;;;;;;;;;21.20;40.20;;;;;;686072;28;1350;-85
2022/02/28 00:37:25;;;;;;;;;;;21.20;40.10;;;;;;685903;28;904;-85
2022/02/28 00:37:46;;;;;;;;;;;21.20;39.80;;;;;;685938;28;1152;-83
2022/02/28 00:38:08;;;;;;;;;;;21.20;39.70;;;;;;686048;28;1360;-85
2022/02/28 00:38:28;;;;;;;;;;;21.20;39.80;;;;;;685958;28;917;-84
2022/02/28 00:38:49;;;;;;;;;;;21.20;40.00;;;;;;686814;28;1351;-86
2022/02/28 00:39:09;;;;;;;;;;;21.20;40.30;;;;;;685924;28;819;-84
2022/02/28 00:39:30;;;;;;;;;;;21.20;40.30;;;;;;686210;28;909;-84
2022/02/28 00:39:51;;;;;;;;;;;21.20;40.40;;;;;;683366;28;906;-84
2022/02/28 00:40:11;;;;;;;;;;;21.20;40.00;;;;;;683717;28;1226;-84
2022/02/28 00:40:32;;;;;;;;;;;21.20;40.00;;;;;;685920;28;1926;-84
2022/02/28 00:40:53;;;;;;;;;;;21.20;40.40;;;;;;686339;28;1412;-84
2022/02/28 00:41:14;;;;;;;;;;;21.10;40.20;;;;;;688786;28;851;-84
2022/02/28 00:41:34;;;;;;;;;;;21.10;40.20;;;;;;688934;28;1289;-84
2022/02/28 00:41:55;;;;;;;;;;;21.10;40.10;;;;;;688546;28;1196;-86
2022/02/28 00:42:16;;;;;;;;;;;21.10;40.30;;;;;;688857;28;822;-85
2022/02/28 00:42:36;;;;;;;;;;;21.10;40.10;;;;;;689132;28;887;-83
2022/02/28 00:42:57;;;;;;;;;;;21.10;40.10;;;;;;691373;28;783;-86
2022/02/28 00:43:18;;;;;;;;;;;21.10;39.80;;;;;;688760;28;1540;-82
2022/02/28 00:43:38;;;;;;;;;;;21.10;39.80;;;;;;689100;28;783;-84
2022/02/28 00:43:59;;;;;;;;;;;21.10;39.90;;;;;;691441;28;1010;-85
2022/02/28 00:44:20;;;;;;;;;;;21.10;39.80;;;;;;691438;28;1275;-85
2022/02/28 00:44:41;;;;;;;;;;;21.10;40.60;;;;;;692081;28;1538;-86
2022/02/28 00:45:01;;;;;;;;;;;21.10;39.90;;;;;;693500;28;1418;-82
2022/02/28 00:45:22;;;;;;;;;;;21.10;40.00;;;;;;691912;28;1574;-83
2022/02/28 00:45:43;;;;;;;;;;;21.10;40.00;;;;;;691363;28;870;-83
2022/02/28 00:46:05;;;;;;;;;;;21.10;40.20;;;;;;691403;28;865;-81
2022/02/28 00:46:31;;;;;;;;;;;21.10;40.30;;;;;;690200;28;1264;-81
2022/02/28 00:46:51;;;;;;;;;;;21.10;40.40;;;;;;694206;28;779;-80
2022/02/28 00:47:12;;;;;;;;;;;21.10;40.00;;;;;;694002;28;950;-81
2022/02/28 00:47:33;;;;;;;;;;;21.10;39.90;;;;;;694219;28;798;-83
2022/02/28 00:47:53;;;;;;;;;;;21.10;39.80;;;;;;693903;28;1162;-81
2022/02/28 00:48:14;;;;;;;;;;;21.10;40.00;;;;;;694125;28;814;-82
2022/02/28 00:48:34;;;;;;;;;;;21.10;40.30;;;;;;694053;28;874;-84
2022/02/28 00:48:55;;;;;;;;;;;21.10;40.20;;;;;;694157;28;803;-84
2022/02/28 00:49:15;;;;;;;;;;;21.10;40.00;;;;;;694268;28;778;-84
2022/02/28 00:49:39;;;;;;;;;;;21.10;40.00;;;;;;691015;28;1187;-85
2022/02/28 00:50:00;;;;;;;;;;;21.10;39.80;;;;;;688257;28;1374;-82
2022/02/28 00:50:21;;;;;;;;;;;21.10;39.60;;;;;;686055;28;1378;-84
2022/02/28 00:50:41;;;;;;;;;;;21.10;40.20;;;;;;684476;28;1310;-84
2022/02/28 00:51:02;;;;;;;;;;;21.10;40.40;;;;;;685934;28;854;-81
2022/02/28 00:51:23;;;;;;;;;;;21.10;40.20;;;;;;684134;28;1198;-82
2022/02/28 00:51:43;;;;;;;;;;;21.10;40.10;;;;;;683299;28;1443;-83
2022/02/28 00:52:04;;;;;;;;;;;21.10;40.00;;;;;;685859;28;1224;-83
2022/02/28 00:52:25;;;;;;;;;;;21.00;39.80;;;;;;683449;28;1312;-82
2022/02/28 00:52:46;;;;;;;;;;;21.10;39.80;;;;;;685892;28;1124;-84
2022/02/28 00:53:06;;;;;;;;;;;21.10;39.90;;;;;;685789;28;1478;-84
2022/02/28 00:53:27;;;;;;;;;;;21.10;40.10;;;;;;688661;28;902;-82
2022/02/28 00:53:47;;;;;;;;;;;21.10;39.90;;;;;;689169;28;799;-82
2022/02/28 00:54:08;;;;;;;;;;;21.10;39.90;;;;;;691522;28;826;-83
2022/02/28 00:54:29;;;;;;;;;;;21.10;39.80;;;;;;691218;28;1093;-84
2022/02/28 00:54:49;;;;;;;;;;;21.10;39.70;;;;;;691698;28;885;-84
2022/02/28 00:55:11;;;;;;;;;;;21.10;39.80;;;;;;693790;28;1525;-81
2022/02/28 00:55:31;;;;;;;;;;;21.10;39.80;;;;;;694124;28;865;-85
2022/02/28 00:55:52;;;;;;;;;;;21.10;40.10;;;;;;694190;28;941;-84
2022/02/28 00:56:13;;;;;;;;;;;21.10;40.00;;;;;;694174;28;1222;-84
2022/02/28 00:56:33;;;;;;;;;;;21.10;40.10;;;;;;694326;28;854;-84
2022/02/28 00:56:55;;;;;;;;;;;21.10;39.80;;;;;;694240;28;910;-84
2022/02/28 00:57:15;;;;;;;;;;;21.10;39.90;;;;;;694445;28;914;-85
2022/02/28 00:57:36;;;;;;;;;;;21.10;40.00;;;;;;694315;28;878;-84
2022/02/28 00:57:57;;;;;;;;;;;21.10;39.80;;;;;;694287;28;842;-85
2022/02/28 00:58:17;;;;;;;;;;;21.10;39.80;;;;;;694472;28;835;-84
2022/02/28 00:58:38;;;;;;;;;;;21.10;39.80;;;;;;694300;28;798;-84
2022/02/28 00:58:58;;;;;;;;;;;21.10;39.60;;;;;;692993;28;1305;-85
2022/02/28 00:59:19;;;;;;;;;;;21.10;39.60;;;;;;694212;28;854;-84
2022/02/28 00:59:39;;;;;;;;;;;21.10;39.60;;;;;;694028;28;1460;-85
2022/02/28 01:00:00;;;;;;;;;;;21.10;39.60;;;;;;693723;28;1619;-84
2022/02/28 01:00:22;;;;;;;;;;;21.10;39.50;;;;;;694058;28;1273;-85
2022/02/28 01:00:42;;;;;;;;;;;21.10;39.60;;;;;;694076;28;1906;-84
2022/02/28 01:01:03;;;;;;;;;;;21.10;39.70;;;;;;694035;28;956;-84
2022/02/28 01:01:24;;;;;;;;;;;21.10;39.60;;;;;;694054;28;1342;-85
2022/02/28 01:01:44;;;;;;;;;;;21.00;39.50;;;;;;694209;28;878;-85
2022/02/28 01:02:05;;;;;;;;;;;21.10;39.40;;;;;;691705;28;879;-85
2022/02/28 01:02:25;;;;;;;;;;;21.10;39.50;;;;;;691176;28;1356;-84
2022/02/28 01:02:47;;;;;;;;;;;21.00;39.50;;;;;;688658;28;1248;-84
2022/02/28 01:03:07;;;;;;;;;;;21.10;39.40;;;;;;688038;28;906;-84
2022/02/28 01:03:28;;;;;;;;;;;21.10;39.50;;;;;;688632;28;945;-85
2022/02/28 01:03:49;;;;;;;;;;;21.00;39.50;;;;;;686355;28;902;-85
2022/02/28 01:04:09;;;;;;;;;;;21.10;39.50;;;;;;689000;28;838;-85
2022/02/28 01:04:30;;;;;;;;;;;21.00;39.70;;;;;;691360;28;811;-86
2022/02/28 01:04:50;;;;;;;;;;;21.10;39.50;;;;;;691777;28;1105;-84
2022/02/28 01:05:12;;;;;;;;;;;21.10;39.60;;;;;;694008;28;790;-85
2022/02/28 01:05:32;;;;;;;;;;;21.00;39.80;;;;;;694296;28;1190;-84
2022/02/28 01:05:53;;;;;;;;;;;21.00;39.80;;;;;;696872;28;913;-84
2022/02/28 01:06:14;;;;;;;;;;;21.00;39.50;;;;;;696950;28;887;-84
2022/02/28 01:06:34;;;;;;;;;;;21.00;39.80;;;;;;696818;28;779;-83
2022/02/28 01:06:55;;;;;;;;;;;21.10;39.60;;;;;;696815;28;802;-85
2022/02/28 01:07:15;;;;;;;;;;;21.00;39.40;;;;;;696577;28;806;-85
2022/02/28 01:07:36;;;;;;;;;;;21.10;39.40;;;;;;696738;28;913;-85
2022/02/28 01:07:57;;;;;;;;;;;21.00;39.50;;;;;;693980;28;1220;-84
2022/02/28 01:08:17;;;;;;;;;;;21.10;39.50;;;;;;694131;28;861;-85
2022/02/28 01:08:39;;;;;;;;;;;21.00;39.50;;;;;;693956;28;1226;-85
2022/02/28 01:08:59;;;;;;;;;;;21.00;39.40;;;;;;690887;28;1197;-85
2022/02/28 01:09:20;;;;;;;;;;;21.00;39.60;;;;;;691460;28;910;-84
2022/02/28 01:09:41;;;;;;;;;;;21.00;39.60;;;;;;691301;28;803;-85
2022/02/28 01:10:03;;;;;;;;;;;21.00;39.50;;;;;;691379;28;898;-84
2022/02/28 01:10:24;;;;;;;;;;;21.00;39.50;;;;;;691997;28;835;-86
2022/02/28 01:10:45;;;;;;;;;;;21.00;39.50;;;;;;694247;28;779;-85
2022/02/28 01:11:06;;;;;;;;;;;21.00;39.50;;;;;;694063;28;1219;-85
2022/02/28 01:11:27;;;;;;;;;;;21.00;39.50;;;;;;693931;28;1343;-86
2022/02/28 01:11:47;;;;;;;;;;;21.00;39.30;;;;;;694079;28;834;-85
2022/02/28 01:12:08;;;;;;;;;;;21.00;39.30;;;;;;693827;28;1362;-85
2022/02/28 01:12:29;;;;;;;;;;;21.00;39.30;;;;;;693936;28;1056;-85
2022/02/28 01:12:50;;;;;;;;;;;21.00;40.50;;;;;;691022;28;1335;-85
2022/02/28 01:13:11;;;;;;;;;;;21.00;39.40;;;;;;688786;28;1226;-85
2022/02/28 01:13:31;;;;;;;;;;;21.00;39.30;;;;;;688502;28;1234;-84
2022/02/28 01:13:52;;;;;;;;;;;21.00;39.30;;;;;;688721;28;790;-85
2022/02/28 01:14:12;;;;;;;;;;;21.00;39.20;;;;;;688949;28;782;-84
2022/02/28 01:14:34;;;;;;;;;;;21.00;39.30;;;;;;692022;28;1514;-84
2022/02/28 01:14:54;;;;;;;;;;;21.00;39.40;;;;;;688576;28;1212;-85
2022/02/28 01:15:15;;;;;;;;;;;21.00;39.30;;;;;;688993;28;929;-84
2022/02/28 01:15:37;;;;;;;;;;;21.00;39.30;;;;;;691259;28;811;-85
2022/02/28 01:15:57;;;;;;;;;;;21.00;39.30;;;;;;691344;28;791;-85
2022/02/28 01:16:18;;;;;;;;;;;21.00;39.30;;;;;;691913;28;878;-84
2022/02/28 01:16:39;;;;;;;;;;;21.00;39.30;;;;;;694036;28;902;-85
2022/02/28 01:16:59;;;;;;;;;;;21.00;39.20;;;;;;693999;28;1003;-85
2022/02/28 01:17:20;;;;;;;;;;;21.00;39.10;;;;;;694042;28;1185;-85
2022/02/28 01:17:40;;;;;;;;;;;21.00;39.20;;;;;;694044;28;782;-84
2022/02/28 01:18:01;;;;;;;;;;;21.00;39.20;;;;;;694126;28;841;-84
2022/02/28 01:18:22;;;;;;;;;;;21.00;39.30;;;;;;694132;28;882;-84
2022/02/28 01:18:42;;;;;;;;;;;21.00;39.20;;;;;;693963;28;1201;-84
2022/02/28 01:19:03;;;;;;;;;;;21.00;39.20;;;;;;693955;28;1399;-84
2022/02/28 01:19:24;;;;;;;;;;;21.00;39.20;;;;;;694075;28;862;-85
2022/02/28 01:19:44;;;;;;;;;;;21.00;39.10;;;;;;694051;28;798;-84
2022/02/28 01:20:06;;;;;;;;;;;21.00;39.10;;;;;;691280;28;867;-84
2022/02/28 01:20:27;;;;;;;;;;;21.00;39.30;;;;;;691134;28;1894;-85
2022/02/28 01:20:49;;;;;;;;;;;21.00;39.20;;;;;;691902;28;874;-84
2022/02/28 01:21:09;;;;;;;;;;;21.00;39.40;;;;;;691229;28;1173;-85
2022/02/28 01:21:30;;;;;;;;;;;21.00;39.20;;;;;;691225;28;1337;-85
2022/02/28 01:21:51;;;;;;;;;;;21.00;39.20;;;;;;692021;28;1455;-85
2022/02/28 01:22:11;;;;;;;;;;;21.00;39.20;;;;;;693983;28;1346;-85
2022/02/28 01:22:32;;;;;;;;;;;21.00;39.20;;;;;;694028;28;1238;-84
2022/02/28 01:22:52;;;;;;;;;;;21.00;39.20;;;;;;690859;28;1241;-84
2022/02/28 01:23:13;;;;;;;;;;;21.00;39.30;;;;;;688686;28;1086;-84
2022/02/28 01:23:34;;;;;;;;;;;21.00;39.30;;;;;;688606;28;784;-84
2022/02/28 01:23:54;;;;;;;;;;;21.00;39.30;;;;;;685738;28;1376;-85
2022/02/28 01:24:15;;;;;;;;;;;21.00;39.10;;;;;;683062;28;1604;-82
2022/02/28 01:24:36;;;;;;;;;;;21.00;39.20;;;;;;686033;28;1194;-84
2022/02/28 01:24:57;;;;;;;;;;;21.00;39.20;;;;;;686231;28;1398;-85
2022/02/28 01:25:18;;;;;;;;;;;21.00;39.20;;;;;;685898;28;1206;-84
2022/02/28 01:25:38;;;;;;;;;;;21.00;39.20;;;;;;685819;28;1202;-84
2022/02/28 01:25:59;;;;;;;;;;;21.00;39.20;;;;;;686210;28;855;-84
2022/02/28 01:26:19;;;;;;;;;;;21.00;39.20;;;;;;685929;28;1595;-84
2022/02/28 01:26:41;;;;;;;;;;;21.00;39.20;;;;;;686449;28;1432;-84
2022/02/28 01:27:02;;;;;;;;;;;21.00;39.40;;;;;;685837;28;1281;-84
2022/02/28 01:27:23;;;;;;;;;;;21.00;39.30;;;;;;685931;28;1353;-85
2022/02/28 01:27:44;;;;;;;;;;;21.00;39.30;;;;;;686054;28;768;-84
2022/02/28 01:28:04;;;;;;;;;;;21.00;39.50;;;;;;686402;28;798;-84
2022/02/28 01:28:25;;;;;;;;;;;21.00;39.30;;;;;;689002;28;810;-84
2022/02/28 01:28:45;;;;;;;;;;;21.00;39.30;;;;;;691671;28;1343;-84
2022/02/28 01:29:06;;;;;;;;;;;21.00;39.30;;;;;;694300;28;778;-84
2022/02/28 01:29:26;;;;;;;;;;;20.90;39.10;;;;;;696709;28;857;-84
2022/02/28 01:29:47;;;;;;;;;;;21.00;39.10;;;;;;696786;28;1326;-84
2022/02/28 01:30:08;;;;;;;;;;;21.00;39.10;;;;;;696765;28;972;-84
2022/02/28 01:30:28;;;;;;;;;;;21.00;39.10;;;;;;696266;28;924;-84
2022/02/28 01:30:49;;;;;;;;;;;21.00;39.10;;;;;;694085;28;905;-84
2022/02/28 01:31:10;;;;;;;;;;;21.00;39.40;;;;;;694038;28;861;-85
2022/02/28 01:31:30;;;;;;;;;;;21.00;39.30;;;;;;694040;28;885;-84
2022/02/28 01:31:51;;;;;;;;;;;21.00;39.10;;;;;;694009;28;1513;-84
2022/02/28 01:32:12;;;;;;;;;;;20.90;39.00;;;;;;693872;28;1238;-84
2022/02/28 01:32:32;;;;;;;;;;;21.00;39.20;;;;;;691106;28;850;-83
2022/02/28 01:32:53;;;;;;;;;;;20.90;39.00;;;;;;691357;28;865;-83
2022/02/28 01:33:13;;;;;;;;;;;21.00;39.10;;;;;;691385;28;839;-83
2022/02/28 01:33:34;;;;;;;;;;;21.00;39.10;;;;;;688417;28;1267;-84
2022/02/28 01:33:55;;;;;;;;;;;21.00;39.00;;;;;;686421;28;961;-84
2022/02/28 01:34:15;;;;;;;;;;;21.00;39.00;;;;;;686224;28;1209;-83
2022/02/28 01:34:36;;;;;;;;;;;21.00;39.00;;;;;;688434;28;827;-84
2022/02/28 01:34:56;;;;;;;;;;;21.00;39.00;;;;;;688490;28;1522;-84
2022/02/28 01:35:17;;;;;;;;;;;21.00;39.00;;;;;;689009;28;838;-83
2022/02/28 01:35:37;;;;;;;;;;;21.00;39.00;;;;;;691253;28;833;-84
2022/02/28 01:35:58;;;;;;;;;;;21.00;39.00;;;;;;691457;28;826;-82
2022/02/28 01:36:18;;;;;;;;;;;20.90;38.90;;;;;;691316;28;1296;-84
2022/02/28 01:36:39;;;;;;;;;;;20.90;38.80;;;;;;688291;28;937;-85
2022/02/28 01:36:59;;;;;;;;;;;20.90;38.90;;;;;;688449;28;882;-85
2022/02/28 01:37:20;;;;;;;;;;;20.90;38.80;;;;;;688728;28;814;-85
2022/02/28 01:37:41;;;;;;;;;;;21.00;38.90;;;;;;685833;28;800;-84
2022/02/28 01:38:02;;;;;;;;;;;21.00;39.00;;;;;;686190;28;807;-83
2022/02/28 01:38:22;;;;;;;;;;;21.00;39.00;;;;;;688926;28;869;-84
2022/02/28 01:38:43;;;;;;;;;;;20.90;38.80;;;;;;688809;28;843;-84
2022/02/28 01:39:04;;;;;;;;;;;20.90;38.90;;;;;;691277;28;811;-83
2022/02/28 01:39:25;;;;;;;;;;;20.90;38.90;;;;;;691194;28;918;-82
2022/02/28 01:39:46;;;;;;;;;;;20.90;38.80;;;;;;691376;28;917;-82
2022/02/28 01:40:07;;;;;;;;;;;20.90;38.80;;;;;;691217;28;862;-82
2022/02/28 01:40:28;;;;;;;;;;;20.90;38.80;;;;;;691728;28;2233;-82
2022/02/28 01:40:49;;;;;;;;;;;20.90;38.80;;;;;;691255;28;799;-83
2022/02/28 01:41:10;;;;;;;;;;;20.90;38.80;;;;;;691730;28;925;-84
2022/02/28 01:41:30;;;;;;;;;;;20.90;38.80;;;;;;693952;28;802;-84
2022/02/28 01:41:51;;;;;;;;;;;21.00;39.00;;;;;;694034;28;886;-84
2022/02/28 01:42:12;;;;;;;;;;;20.90;38.90;;;;;;691196;28;1514;-84
2022/02/28 01:42:33;;;;;;;;;;;20.90;38.80;;;;;;688909;28;827;-82
2022/02/28 01:42:53;;;;;;;;;;;20.90;38.90;;;;;;691187;28;830;-84
2022/02/28 01:43:14;;;;;;;;;;;20.90;38.80;;;;;;688552;28;867;-84
2022/02/28 01:43:34;;;;;;;;;;;20.90;38.80;;;;;;688695;28;1457;-83
2022/02/28 01:43:55;;;;;;;;;;;20.90;38.80;;;;;;688818;28;1357;-84
2022/02/28 01:44:15;;;;;;;;;;;20.90;38.80;;;;;;688198;28;1601;-84
2022/02/28 01:44:36;;;;;;;;;;;20.90;39.90;;;;;;688564;28;890;-84
2022/02/28 01:44:57;;;;;;;;;;;20.90;38.70;;;;;;686029;28;953;-84
2022/02/28 01:45:22;;;;;;;;;;;20.90;38.70;;;;;;688623;28;825;-83
2022/02/28 01:45:43;;;;;;;;;;;20.90;38.80;;;;;;689553;28;854;-84
2022/02/28 01:46:04;;;;;;;;;;;20.90;38.70;;;;;;692306;28;838;-83
2022/02/28 01:46:24;;;;;;;;;;;20.90;38.80;;;;;;693993;28;952;-84
2022/02/28 01:46:45;;;;;;;;;;;20.90;38.70;;;;;;694131;28;790;-84
2022/02/28 01:47:06;;;;;;;;;;;20.90;38.70;;;;;;693774;28;1599;-84
2022/02/28 01:47:26;;;;;;;;;;;20.90;38.80;;;;;;693958;28;886;-85
2022/02/28 01:47:47;;;;;;;;;;;20.90;38.80;;;;;;694036;28;842;-83
2022/02/28 01:48:07;;;;;;;;;;;20.90;38.80;;;;;;693840;28;1335;-83
2022/02/28 01:48:28;;;;;;;;;;;20.90;38.70;;;;;;693973;28;889;-85
2022/02/28 01:48:48;;;;;;;;;;;20.90;38.80;;;;;;694076;28;842;-84
2022/02/28 01:49:09;;;;;;;;;;;20.90;38.80;;;;;;696628;28;1536;-85
2022/02/28 01:49:30;;;;;;;;;;;20.90;38.80;;;;;;696696;28;786;-84
2022/02/28 01:49:51;;;;;;;;;;;20.90;38.70;;;;;;696686;28;1339;-84
2022/02/28 01:50:12;;;;;;;;;;;20.90;38.80;;;;;;693939;28;1492;-84
2022/02/28 01:50:32;;;;;;;;;;;20.90;38.70;;;;;;693963;28;822;-83
2022/02/28 01:50:53;;;;;;;;;;;20.90;38.70;;;;;;693969;28;1381;-84
2022/02/28 01:51:13;;;;;;;;;;;20.90;38.80;;;;;;694064;28;826;-84
2022/02/28 01:51:35;;;;;;;;;;;20.90;38.80;;;;;;691155;28;921;-84
2022/02/28 01:51:55;;;;;;;;;;;20.90;38.80;;;;;;691081;28;1257;-84
2022/02/28 01:52:16;;;;;;;;;;;20.90;38.70;;;;;;691221;28;1397;-83
2022/02/28 01:52:36;;;;;;;;;;;20.90;38.70;;;;;;691209;28;822;-83
2022/02/28 01:52:57;;;;;;;;;;;20.90;38.70;;;;;;688455;28;1432;-84
2022/02/28 01:53:19;;;;;;;;;;;20.90;38.60;;;;;;689024;28;806;-84
2022/02/28 01:53:40;;;;;;;;;;;20.90;38.60;;;;;;688417;28;810;-84
2022/02/28 01:54:01;;;;;;;;;;;20.90;38.60;;;;;;689052;28;865;-84
2022/02/28 01:54:22;;;;;;;;;;;20.90;38.60;;;;;;688509;28;1358;-84
2022/02/28 01:54:46;;;;;;;;;;;20.90;38.60;;;;;;689356;28;767;-84
2022/02/28 01:55:07;;;;;;;;;;;20.90;38.60;;;;;;688382;28;1332;-84
2022/02/28 01:55:28;;;;;;;;;;;20.90;38.60;;;;;;689442;28;901;-84
2022/02/28 01:55:49;;;;;;;;;;;20.90;38.70;;;;;;691265;28;857;-84
2022/02/28 01:56:09;;;;;;;;;;;20.90;38.70;;;;;;689245;28;1670;-84
2022/02/28 01:56:30;;;;;;;;;;;20.90;38.60;;;;;;687961;28;1466;-83
2022/02/28 01:56:50;;;;;;;;;;;20.90;38.60;;;;;;688533;28;1483;-83
2022/02/28 01:57:11;;;;;;;;;;;20.90;38.70;;;;;;688547;28;839;-84
2022/02/28 01:57:32;;;;;;;;;;;20.90;38.70;;;;;;685703;28;1503;-84
2022/02/28 01:57:53;;;;;;;;;;;20.90;38.70;;;;;;686276;28;850;-83
2022/02/28 01:58:14;;;;;;;;;;;20.90;38.60;;;;;;689075;28;1378;-84
2022/02/28 01:58:35;;;;;;;;;;;20.90;38.60;;;;;;688848;28;1200;-83
2022/02/28 01:58:55;;;;;;;;;;;20.90;38.60;;;;;;691083;28;1308;-84
2022/02/28 01:59:16;;;;;;;;;;;20.90;38.60;;;;;;691384;28;850;-83
2022/02/28 01:59:37;;;;;;;;;;;20.90;38.60;;;;;;688392;28;1644;-83
2022/02/28 01:59:57;;;;;;;;;;;20.90;38.70;;;;;;688295;28;1333;-84
2022/02/28 02:00:20;;;;;;;;;;;20.90;38.60;;;;;;686185;28;1012;-84
2022/02/28 02:00:44;;;;;;;;;;;20.90;38.60;;;;;;688434;28;1910;-84
2022/02/28 02:01:05;;;;;;;;;;;20.90;38.60;;;;;;685689;28;811;-84
2022/02/28 02:01:26;;;;;;;;;;;20.90;38.60;;;;;;686984;28;871;-84
2022/02/28 02:01:46;;;;;;;;;;;20.90;38.70;;;;;;689682;28;958;-84
2022/02/28 02:02:07;;;;;;;;;;;20.90;38.60;;;;;;689515;28;905;-83
2022/02/28 02:02:28;;;;;;;;;;;20.90;38.80;;;;;;691197;28;809;-83
2022/02/28 02:02:49;;;;;;;;;;;20.90;38.60;;;;;;691816;28;814;-84
2022/02/28 02:03:09;;;;;;;;;;;20.90;38.60;;;;;;693874;28;862;-83
2022/02/28 02:03:30;;;;;;;;;;;20.90;38.60;;;;;;691105;28;1281;-83
2022/02/28 02:03:50;;;;;;;;;;;20.90;38.50;;;;;;691659;28;791;-85
2022/02/28 02:04:11;;;;;;;;;;;20.90;38.80;;;;;;691073;28;910;-84
2022/02/28 02:04:32;;;;;;;;;;;20.90;38.60;;;;;;690830;28;882;-84
2022/02/28 02:04:52;;;;;;;;;;;20.90;38.80;;;;;;688195;28;898;-84
2022/02/28 02:05:13;;;;;;;;;;;20.90;38.90;;;;;;688441;28;1080;-84
2022/02/28 02:05:33;;;;;;;;;;;20.90;38.80;;;;;;691177;28;830;-83